Time;durP1;ratioP1;P1;durP2;ratioP2;P2;SDS_P1;SDS_P2;PMS_P1;PMS_P2;Temp;Humidity;BMP_temperature;BMP_pressure;BME280_temperature;BME280_humidity;BME280_pressure;Samples;Min_cycle;Max_cycle;Signal;HPM_P1;HPM_P2
2023/09/07 00:13:45;;;;;;;4.20;3.90;;;19.20;99.60;;;;;;10105204;29;20663;-80
2023/09/07 00:19:50;;;;;;;4.70;4.40;;;19.10;99.70;;;;;;10170104;28;20208;-80
2023/09/07 00:31:26;;;;;;;4.17;3.97;;;19.00;99.90;;;;;;10180057;28;20199;-80
2023/09/07 00:37:15;;;;;;;4.30;3.93;;;18.90;99.90;;;;;;10174453;28;20214;-80
2023/09/07 00:42:43;;;;;;;6.50;4.60;;;18.90;99.90;;;;;;10210420;28;20283;-80
2023/09/07 00:48:03;;;;;;;4.63;4.33;;;18.90;99.90;;;;;;10173672;28;20207;-80
2023/09/07 00:59:09;;;;;;;4.13;3.80;;;18.80;99.90;;;;;;10165322;28;20211;-80
2023/09/07 01:10:20;;;;;;;4.40;4.10;;;18.80;99.90;;;;;;10134667;29;20237;-80
2023/09/07 01:16:28;;;;;;;4.83;4.53;;;18.80;99.90;;;;;;10171142;29;20234;-80
2023/09/07 01:21:51;;;;;;;5.60;4.83;;;18.80;99.90;;;;;;10152302;29;20199;-80
2023/09/07 01:38:38;;;;;;;5.40;4.90;;;18.60;99.90;;;;;;10238367;28;20306;-80
2023/09/07 01:44:11;;;;;;;5.00;4.70;;;18.60;99.90;;;;;;10235240;28;20258;-79
2023/09/07 01:49:33;;;;;;;5.30;4.90;;;18.60;99.90;;;;;;10204397;28;20301;-80
2023/09/07 01:55:17;;;;;;;4.87;4.57;;;18.60;99.90;;;;;;10230948;28;20245;-80
2023/09/07 02:06:14;;;;;;;5.37;4.97;;;18.50;99.90;;;;;;10131690;29;20715;-80
2023/09/07 02:11:52;;;;;;;5.50;5.10;;;18.50;99.90;;;;;;10229478;28;20222;-79
2023/09/07 02:17:06;;;;;;;4.93;4.63;;;18.40;99.90;;;;;;10151826;28;20231;-79
2023/09/07 02:22:19;;;;;;;5.23;4.83;;;18.40;99.90;;;;;;10209639;28;20227;-79
2023/09/07 02:27:42;;;;;;;5.70;5.30;;;18.40;99.90;;;;;;10165168;29;20206;-79
2023/09/07 02:32:53;;;;;;;5.70;5.30;;;18.30;99.90;;;;;;10202911;28;20250;-80
2023/09/07 02:38:10;;;;;;;6.10;5.60;;;18.30;99.90;;;;;;10232430;28;20673;-79
2023/09/07 02:43:17;;;;;;;6.40;5.77;;;18.30;99.90;;;;;;10176583;28;20229;-79
2023/09/07 02:48:28;;;;;;;7.60;5.60;;;18.30;99.90;;;;;;10148870;28;20664;-80
2023/09/07 02:53:50;;;;;;;7.27;5.80;;;18.30;99.90;;;;;;10232399;28;20276;-79
2023/09/07 02:59:12;;;;;;;6.30;5.90;;;18.20;99.90;;;;;;10230059;28;20199;-79
2023/09/07 03:04:23;;;;;;;6.23;5.73;;;18.20;99.90;;;;;;10210041;28;20210;-80
2023/09/07 03:09:31;;;;;;;6.00;5.50;;;18.20;99.90;;;;;;10226847;28;20266;-79
2023/09/07 03:14:44;;;;;;;6.43;5.87;;;18.20;99.90;;;;;;10192226;28;20234;-79
2023/09/07 03:20:13;;;;;;;6.33;5.73;;;18.10;99.90;;;;;;10197287;28;20369;-80
2023/09/07 03:25:31;;;;;;;5.60;5.30;;;18.10;99.90;;;;;;10203887;28;20223;-80
2023/09/07 03:30:41;;;;;;;5.70;5.30;;;18.00;99.90;;;;;;10239354;28;20207;-80
2023/09/07 03:35:58;;;;;;;6.73;6.23;;;18.00;99.90;;;;;;10211949;28;20573;-80
2023/09/07 03:41:01;;;;;;;5.80;5.30;;;18.00;99.90;;;;;;10206189;28;20661;-79
2023/09/07 03:46:11;;;;;;;6.67;6.00;;;18.00;99.90;;;;;;10237402;28;20222;-80
2023/09/07 03:51:20;;;;;;;6.40;5.90;;;17.90;99.90;;;;;;10165627;29;20194;-79
2023/09/07 03:56:25;;;;;;;5.60;5.07;;;17.90;99.90;;;;;;10262804;28;20220;-79
2023/09/07 04:01:38;;;;;;;8.80;6.57;;;17.90;99.90;;;;;;10247283;28;20203;-79
2023/09/07 04:06:55;;;;;;;6.33;5.80;;;17.90;99.90;;;;;;10231708;28;20202;-79
2023/09/07 04:12:18;;;;;;;5.93;5.33;;;17.80;99.90;;;;;;10225368;28;20233;-79
2023/09/07 04:17:35;;;;;;;6.50;6.00;;;17.80;99.90;;;;;;10179589;28;20219;-79
2023/09/07 04:22:40;;;;;;;6.60;6.10;;;17.70;99.90;;;;;;10251780;28;20250;-79
2023/09/07 04:27:48;;;;;;;6.90;6.20;;;17.70;99.90;;;;;;10220010;28;20203;-79
2023/09/07 04:32:57;;;;;;;6.50;6.10;;;17.70;99.90;;;;;;10225913;28;20594;-79
2023/09/07 04:38:18;;;;;;;6.70;6.07;;;17.60;99.90;;;;;;10244430;28;20480;-79
2023/09/07 04:43:31;;;;;;;6.13;5.63;;;17.70;99.90;;;;;;10195266;28;20292;-79
2023/09/07 04:48:41;;;;;;;7.00;5.20;;;17.60;99.90;;;;;;10245251;28;20319;-79
2023/09/07 04:53:45;;;;;;;5.80;5.40;;;17.60;99.90;;;;;;10206965;28;20241;-79
2023/09/07 04:58:49;;;;;;;5.90;5.50;;;17.60;99.90;;;;;;10217443;28;20261;-79
2023/09/07 05:04:03;;;;;;;6.43;5.93;;;17.60;99.90;;;;;;10157689;28;20231;-79
2023/09/07 05:09:12;;;;;;;5.70;5.30;;;17.60;99.90;;;;;;10200433;28;20622;-79
2023/09/07 05:14:25;;;;;;;6.80;6.20;;;17.50;99.90;;;;;;10219333;28;20310;-79
2023/09/07 05:19:38;;;;;;;6.80;6.30;;;17.60;99.90;;;;;;10234232;28;20211;-79
2023/09/07 05:24:40;;;;;;;6.03;5.53;;;17.60;99.90;;;;;;10206445;28;20220;-79
2023/09/07 05:29:44;;;;;;;6.60;5.83;;;17.60;99.90;;;;;;10221755;28;20290;-79
2023/09/07 05:34:47;;;;;;;7.23;6.73;;;17.60;99.90;;;;;;10221771;28;20229;-79
2023/09/07 05:39:50;;;;;;;5.93;5.53;;;17.60;99.90;;;;;;10156432;28;20223;-79
2023/09/07 05:44:59;;;;;;;7.50;6.80;;;17.60;99.90;;;;;;10218065;28;20214;-79
2023/09/07 05:50:07;;;;;;;7.20;6.50;;;17.60;99.90;;;;;;10247743;28;20216;-79
2023/09/07 05:55:10;;;;;;;7.53;6.83;;;17.70;99.90;;;;;;10214118;28;20293;-79
2023/09/07 06:00:15;;;;;;;8.17;7.37;;;17.70;99.90;;;;;;10220998;28;20251;-79
2023/09/07 06:05:19;;;;;;;7.07;6.47;;;17.70;99.90;;;;;;10291738;23;20263;-78
2023/09/07 06:10:23;;;;;;;7.83;7.03;;;17.70;99.90;;;;;;10296079;28;20221;-78
2023/09/07 06:15:27;;;;;;;8.03;6.97;;;17.80;99.90;;;;;;10281226;28;20324;-78
2023/09/07 06:20:31;;;;;;;8.10;7.40;;;17.80;99.90;;;;;;10280072;28;20748;-77
2023/09/07 06:25:35;;;;;;;7.77;7.10;;;17.80;99.90;;;;;;10280245;28;20242;-79
2023/09/07 06:30:37;;;;;;;8.10;7.30;;;17.90;99.90;;;;;;10282478;28;20222;-78
2023/09/07 06:35:41;;;;;;;8.57;7.67;;;17.90;99.90;;;;;;10214256;28;20234;-78
2023/09/07 06:40:49;;;;;;;8.87;8.17;;;18.00;99.90;;;;;;10280423;28;20210;-78
2023/09/07 06:45:52;;;;;;;7.90;7.20;;;18.00;99.90;;;;;;10279278;28;20224;-79
2023/09/07 06:50:55;;;;;;;8.33;7.33;;;18.10;99.90;;;;;;10280551;28;20576;-78
2023/09/07 06:56:02;;;;;;;8.77;8.03;;;18.20;99.90;;;;;;10278579;28;20275;-78
2023/09/07 07:01:06;;;;;;;8.43;7.00;;;18.20;99.90;;;;;;10278928;28;20209;-78
2023/09/07 07:06:09;;;;;;;11.73;8.07;;;18.30;99.90;;;;;;10278714;28;20230;-78
2023/09/07 07:11:12;;;;;;;8.83;8.00;;;18.40;99.90;;;;;;10277291;28;20210;-79
2023/09/07 07:16:14;;;;;;;9.93;7.57;;;18.50;99.90;;;;;;10279070;28;20265;-78
2023/09/07 07:21:18;;;;;;;8.13;7.30;;;18.60;99.90;;;;;;10278131;28;20210;-78
2023/09/07 07:26:20;;;;;;;12.43;8.90;;;18.70;99.90;;;;;;10278904;28;20228;-80
2023/09/07 07:31:22;;;;;;;10.00;9.00;;;18.80;99.90;;;;;;10277854;28;20210;-80
2023/09/07 07:36:26;;;;;;;10.47;7.07;;;18.90;99.90;;;;;;10277788;28;20222;-78
2023/09/07 07:41:29;;;;;;;8.73;8.03;;;19.00;99.90;;;;;;10278482;28;20202;-79
2023/09/07 07:46:31;;;;;;;7.37;6.77;;;19.10;99.90;;;;;;10261978;28;20249;-80
2023/09/07 07:51:35;;;;;;;8.10;7.40;;;19.20;99.90;;;;;;10277075;28;20206;-78
2023/09/07 07:56:39;;;;;;;7.33;6.80;;;19.40;99.90;;;;;;10275257;28;20332;-78
2023/09/07 08:01:42;;;;;;;7.13;6.53;;;19.50;99.90;;;;;;10275400;28;20220;-80
2023/09/07 08:06:46;;;;;;;8.53;7.73;;;19.70;99.90;;;;;;10400714;28;20206;-78
2023/09/07 08:11:49;;;;;;;7.10;6.50;;;19.80;99.90;;;;;;10399851;28;20221;-79
2023/09/07 08:16:51;;;;;;;12.43;8.03;;;19.90;99.90;;;;;;10400255;28;20215;-79
2023/09/07 08:21:55;;;;;;;7.83;7.13;;;20.10;99.90;;;;;;10433849;28;20199;-78
2023/09/07 08:26:59;;;;;;;7.30;6.57;;;20.20;99.90;;;;;;10400944;28;20652;-79
2023/09/07 08:32:04;;;;;;;6.87;6.47;;;20.30;99.90;;;;;;10400549;28;20226;-78
2023/09/07 08:37:08;;;;;;;8.60;7.80;;;20.50;99.90;;;;;;10418256;28;20226;-79
2023/09/07 08:42:10;;;;;;;7.00;6.40;;;20.60;99.90;;;;;;10420064;28;20226;-79
2023/09/07 08:47:14;;;;;;;7.37;6.80;;;20.70;99.90;;;;;;10400863;28;20579;-77
2023/09/07 08:52:18;;;;;;;13.83;12.63;;;20.80;99.90;;;;;;10418309;28;20229;-78
2023/09/07 08:57:22;;;;;;;16.47;14.87;;;20.90;99.90;;;;;;10416396;28;20218;-79
2023/09/07 09:02:24;;;;;;;9.87;8.07;;;20.90;99.90;;;;;;10397882;28;20223;-79
2023/09/07 09:07:28;;;;;;;7.87;7.17;;;21.00;99.90;;;;;;10398428;28;20195;-78
2023/09/07 09:12:30;;;;;;;8.93;8.23;;;21.00;99.90;;;;;;10415260;28;20290;-79
2023/09/07 09:17:32;;;;;;;7.43;6.90;;;21.00;99.90;;;;;;10415353;28;20227;-79
2023/09/07 09:22:36;;;;;;;7.60;7.10;;;21.10;99.90;;;;;;10416526;28;20219;-78
2023/09/07 09:27:38;;;;;;;7.80;7.20;;;21.20;99.90;;;;;;10419006;28;20535;-79
2023/09/07 09:32:41;;;;;;;8.33;7.53;;;21.30;99.90;;;;;;10401502;28;20206;-79
2023/09/07 09:37:49;;;;;;;6.73;6.27;;;21.40;99.90;;;;;;10415924;28;20233;-81
2023/09/07 09:42:55;;;;;;;6.37;5.90;;;21.60;99.90;;;;;;10414986;28;20219;-80
2023/09/07 09:48:00;;;;;;;8.07;7.37;;;21.70;99.90;;;;;;10417045;28;20225;-79
2023/09/07 09:53:06;;;;;;;6.50;6.00;;;22.10;99.90;;;;;;10412417;28;20222;-79
2023/09/07 09:58:08;;;;;;;7.10;6.53;;;22.50;99.90;;;;;;10413497;28;20308;-79
2023/09/07 10:03:13;;;;;;;6.43;5.93;;;22.90;99.90;;;;;;10413941;28;20787;-79
2023/09/07 10:08:22;;;;;;;6.37;5.87;;;23.30;99.90;;;;;;10394278;28;20195;-79
2023/09/07 10:13:32;;;;;;;11.37;7.03;;;23.40;99.90;;;;;;10406202;28;20214;-78
2023/09/07 10:18:35;;;;;;;6.87;6.37;;;23.30;99.90;;;;;;10410807;28;20226;-79
2023/09/07 10:23:40;;;;;;;7.03;6.40;;;23.20;99.90;;;;;;10423665;28;20214;-80
2023/09/07 10:28:43;;;;;;;9.20;7.10;;;23.10;99.90;;;;;;10414517;28;20213;-80
2023/09/07 10:33:46;;;;;;;7.30;6.53;;;23.00;99.90;;;;;;10410259;28;20223;-79
2023/09/07 10:38:52;;;;;;;7.83;7.23;;;22.90;99.90;;;;;;10394309;28;20211;-78
2023/09/07 10:43:56;;;;;;;7.60;7.00;;;22.90;99.90;;;;;;10411365;28;20211;-78
2023/09/07 10:48:58;;;;;;;7.60;7.00;;;22.90;99.90;;;;;;10415856;28;20195;-78
2023/09/07 10:54:02;;;;;;;11.43;8.43;;;22.90;99.90;;;;;;10400473;28;20210;-80
2023/09/07 10:59:05;;;;;;;10.60;8.37;;;22.80;99.90;;;;;;10417157;28;20276;-79
2023/09/07 11:04:08;;;;;;;9.53;8.73;;;22.80;99.90;;;;;;10414003;28;20264;-79
2023/09/07 11:09:11;;;;;;;9.43;8.47;;;22.80;99.90;;;;;;10440331;28;20715;-78
2023/09/07 11:14:13;;;;;;;9.23;8.03;;;22.90;99.90;;;;;;10401611;28;20715;-79
2023/09/07 11:19:18;;;;;;;7.77;7.27;;;22.90;99.90;;;;;;10419734;28;20245;-79
2023/09/07 11:24:22;;;;;;;7.40;6.70;;;23.00;99.90;;;;;;10401858;28;20214;-78
2023/09/07 11:29:25;;;;;;;8.23;7.53;;;23.00;99.90;;;;;;10419438;28;20195;-78
2023/09/07 11:34:27;;;;;;;8.67;7.87;;;23.00;99.90;;;;;;10418039;28;20616;-79
2023/09/07 11:39:31;;;;;;;8.63;7.87;;;23.00;99.90;;;;;;10400224;28;20676;-78
2023/09/07 11:44:33;;;;;;;7.63;7.13;;;23.10;99.90;;;;;;10399968;28;20313;-79
2023/09/07 11:49:36;;;;;;;6.97;6.47;;;23.10;99.90;;;;;;10418254;28;20198;-79
2023/09/07 11:54:39;;;;;;;7.67;6.93;;;23.10;99.90;;;;;;10414843;28;20219;-79
2023/09/07 11:59:41;;;;;;;8.37;7.67;;;23.10;99.90;;;;;;10414562;28;20222;-79
2023/09/07 12:11:58;;;;;;;6.07;5.60;;;23.00;99.90;;;;;;10367147;28;20195;-79
2023/09/07 12:50:44;;;;;;;;;;;;;;;;;;;;;
2023/09/07 13:02:44;;;;;;;6.40;5.80;;;23.40;99.90;;;;;;10283496;28;20208;-79
2023/09/07 13:08:11;;;;;;;7.10;6.50;;;23.50;99.90;;;;;;10280007;28;20204;-79
2023/09/07 13:26:40;;;;;;;5.13;4.73;;;23.80;99.90;;;;;;10383889;28;20670;-79
2023/09/07 13:39:08;;;;;;;5.37;5.07;;;24.00;99.60;;;;;;10334658;28;20234;-79
2023/09/07 13:51:08;;;;;;;6.60;6.10;;;23.80;99.90;;;;;;10406094;28;20595;-79
2023/09/07 13:57:01;;;;;;;5.80;5.40;;;24.00;99.80;;;;;;10409327;28;20225;-79
2023/09/07 14:03:30;;;;;;;5.97;5.57;;;24.00;99.90;;;;;;10333502;28;20215;-79
2023/09/07 14:08:59;;;;;;;5.17;4.77;;;24.30;99.20;;;;;;10384571;28;20194;-79
2023/09/07 14:33:38;;;;;;;5.50;5.00;;;24.80;98.90;;;;;;10264301;28;20328;-79
2023/09/07 14:39:00;;;;;;;6.20;5.70;;;24.80;98.90;;;;;;10403285;28;20254;-79
2023/09/07 15:16:11;;;;;;;4.90;4.60;;;25.70;96.70;;;;;;10365872;28;20214;-79
2023/09/07 15:21:47;;;;;;;4.77;4.47;;;25.60;97.10;;;;;;10321845;28;20290;-79
2023/09/07 15:39:42;;;;;;;5.20;4.80;;;25.10;98.60;;;;;;10342875;28;20243;-79
2023/09/07 16:13:35;;;;;;;6.00;5.50;;;24.60;98.90;;;;;;10088921;29;20204;-79
2023/09/07 16:27:04;;;;;;;5.20;4.87;;;24.40;99.40;;;;;;10275513;28;20235;-79
2023/09/07 16:32:35;;;;;;;6.10;5.50;;;24.20;99.40;;;;;;10398206;28;20214;-79
2023/09/07 16:38:04;;;;;;;5.30;4.90;;;24.10;99.90;;;;;;10369812;28;20446;-79
2023/09/07 16:43:39;;;;;;;5.63;5.10;;;24.00;99.80;;;;;;10250567;29;20665;-79
2023/09/07 17:02:13;;;;;;;7.40;5.30;;;23.70;99.90;;;;;;10026987;29;20215;-79
2023/09/07 17:07:44;;;;;;;5.93;5.40;;;23.70;98.80;;;;;;10356742;28;20298;-79
2023/09/07 17:13:09;;;;;;;6.57;6.07;;;23.70;99.50;;;;;;10350119;28;20242;-79
2023/09/07 17:19:14;;;;;;;5.60;5.20;;;23.60;99.90;;;;;;10358286;28;20701;-79
2023/09/07 17:25:08;;;;;;;6.83;5.33;;;23.50;99.90;;;;;;10346216;28;20718;-79
2023/09/07 17:37:10;;;;;;;;;;;;;;;;;;;;;
2023/09/07 17:49:52;;;;;;;6.40;5.90;;;23.50;99.80;;;;;;10267311;28;20254;-79
2023/09/07 17:55:31;;;;;;;6.93;6.40;;;23.40;99.90;;;;;;10285751;28;20211;-78
2023/09/07 18:00:54;;;;;;;5.40;5.00;;;23.30;99.90;;;;;;10380173;28;20230;-78
2023/09/07 18:06:02;;;;;;;5.17;4.77;;;23.10;99.90;;;;;;10302261;23;20241;-77
2023/09/07 18:11:07;;;;;;;6.27;5.67;;;23.00;99.90;;;;;;10229983;29;20201;-80
2023/09/07 18:16:09;;;;;;;6.27;5.60;;;23.00;99.90;;;;;;10243204;28;20247;-76
2023/09/07 18:21:11;;;;;;;6.07;5.57;;;22.90;99.90;;;;;;10256874;28;20725;-79
2023/09/07 18:26:15;;;;;;;6.43;5.83;;;22.80;99.90;;;;;;10259304;28;20243;-78
2023/09/07 18:31:17;;;;;;;6.10;5.60;;;22.70;99.90;;;;;;10259757;28;20213;-78
2023/09/07 18:36:19;;;;;;;7.03;6.13;;;22.60;99.90;;;;;;10260683;28;20225;-79
2023/09/07 18:41:22;;;;;;;5.87;5.47;;;22.60;99.90;;;;;;10260294;28;20237;-79
2023/09/07 18:46:24;;;;;;;5.63;5.23;;;22.50;99.90;;;;;;10261224;28;20221;-79
2023/09/07 18:51:27;;;;;;;7.90;7.20;;;22.50;99.90;;;;;;10261461;28;20208;-79
2023/09/07 18:56:31;;;;;;;6.63;6.03;;;22.40;99.90;;;;;;10259566;28;20225;-78
2023/09/07 19:01:34;;;;;;;6.70;6.20;;;22.30;99.90;;;;;;10260493;28;20224;-78
2023/09/07 19:06:37;;;;;;;6.50;6.00;;;22.30;99.90;;;;;;10263084;28;20315;-79
2023/09/07 19:11:40;;;;;;;6.40;5.80;;;22.20;99.90;;;;;;10283969;28;20228;-79
2023/09/07 19:16:42;;;;;;;7.23;6.53;;;22.10;99.90;;;;;;10276034;28;20229;-79
2023/09/07 19:21:45;;;;;;;7.27;6.70;;;22.00;99.90;;;;;;10253111;28;20649;-78
2023/09/07 19:26:50;;;;;;;6.80;6.10;;;21.90;99.90;;;;;;10251947;28;20227;-79
2023/09/07 19:31:53;;;;;;;5.73;5.33;;;21.80;99.90;;;;;;10250972;28;20202;-79
2023/09/07 19:36:55;;;;;;;6.03;5.53;;;21.80;99.90;;;;;;10251405;28;20217;-78
2023/09/07 19:41:58;;;;;;;6.47;5.97;;;21.70;99.90;;;;;;10251609;28;20729;-79
2023/09/07 19:47:01;;;;;;;5.47;4.97;;;21.70;99.90;;;;;;10250807;28;20300;-78
2023/09/07 19:52:03;;;;;;;6.57;5.97;;;21.60;99.90;;;;;;10252383;28;20215;-78
2023/09/07 19:57:06;;;;;;;5.80;5.40;;;21.60;99.90;;;;;;10252519;28;20668;-77
2023/09/07 20:02:08;;;;;;;6.90;6.30;;;21.60;99.90;;;;;;10249903;29;20224;-78
2023/09/07 20:07:12;;;;;;;6.43;5.80;;;21.50;99.90;;;;;;10314218;28;20229;-78
2023/09/07 20:12:15;;;;;;;6.73;6.10;;;21.50;99.90;;;;;;10249109;29;20255;-78
2023/09/07 20:17:17;;;;;;;6.63;6.03;;;21.50;99.90;;;;;;10251535;28;20236;-79
2023/09/07 20:22:20;;;;;;;6.30;5.80;;;21.50;99.90;;;;;;10249537;28;20222;-78
2023/09/07 20:27:23;;;;;;;5.43;5.03;;;21.40;99.90;;;;;;10250953;28;20725;-78
2023/09/07 20:32:26;;;;;;;6.03;5.53;;;21.40;99.90;;;;;;10316884;28;20269;-80
2023/09/07 20:37:28;;;;;;;7.07;6.20;;;21.40;99.90;;;;;;10251139;28;20233;-79
2023/09/07 20:42:31;;;;;;;5.97;5.47;;;21.30;99.90;;;;;;10249850;28;20233;-79
2023/09/07 20:47:34;;;;;;;6.03;5.43;;;21.30;99.90;;;;;;10314747;28;20229;-79
2023/09/07 20:52:36;;;;;;;5.83;5.33;;;21.20;99.90;;;;;;10250251;29;20203;-78
2023/09/07 20:57:39;;;;;;;6.20;5.70;;;21.20;99.90;;;;;;10249331;28;20725;-77
2023/09/07 21:02:42;;;;;;;6.13;5.53;;;21.10;99.90;;;;;;10250546;28;20201;-78
2023/09/07 21:07:44;;;;;;;5.70;5.20;;;21.10;99.90;;;;;;10249750;28;20205;-78
2023/09/07 21:12:47;;;;;;;6.27;5.70;;;21.00;99.90;;;;;;10248355;28;20202;-78
2023/09/07 21:17:49;;;;;;;5.70;5.30;;;21.00;99.90;;;;;;10249402;28;20205;-78
2023/09/07 21:22:52;;;;;;;6.23;5.70;;;21.00;99.90;;;;;;10286304;28;20198;-77
2023/09/07 21:27:55;;;;;;;6.00;5.40;;;20.90;99.90;;;;;;10294369;28;20202;-77
2023/09/07 21:32:58;;;;;;;5.90;5.50;;;20.90;99.90;;;;;;10312815;28;20284;-79
2023/09/07 21:38:00;;;;;;;6.57;6.07;;;20.90;99.90;;;;;;10249627;29;20690;-78
2023/09/07 21:43:04;;;;;;;7.20;6.00;;;20.80;99.90;;;;;;10247927;28;20229;-78
2023/09/07 21:48:07;;;;;;;5.87;5.37;;;20.80;99.90;;;;;;10314201;28;20201;-78
2023/09/07 21:53:09;;;;;;;6.10;5.60;;;20.80;99.90;;;;;;10313951;28;20225;-77
2023/09/07 21:58:13;;;;;;;6.90;6.30;;;20.80;99.90;;;;;;10248342;28;20240;-77
2023/09/07 22:03:15;;;;;;;6.07;5.60;;;20.70;99.90;;;;;;10248033;28;20229;-79
2023/09/07 22:08:17;;;;;;;6.63;6.03;;;20.70;99.90;;;;;;10278817;28;20201;-78
2023/09/07 22:13:21;;;;;;;7.63;5.90;;;20.60;99.90;;;;;;10250346;28;20221;-77
2023/09/07 22:18:23;;;;;;;6.30;5.90;;;20.50;99.90;;;;;;10242198;28;20264;-79
2023/09/07 22:23:26;;;;;;;6.90;6.30;;;20.50;99.90;;;;;;10307691;28;20217;-77
2023/09/07 22:28:29;;;;;;;6.53;5.83;;;20.40;99.90;;;;;;10264055;28;20280;-78
2023/09/07 22:33:31;;;;;;;6.33;5.83;;;20.40;99.90;;;;;;10247977;28;20213;-79
2023/09/07 22:38:34;;;;;;;9.40;6.23;;;20.30;99.90;;;;;;10247846;28;20359;-77
2023/09/07 22:43:40;;;;;;;8.40;7.67;;;20.30;99.90;;;;;;10292135;28;20236;-79
2023/09/07 22:48:42;;;;;;;7.43;5.83;;;20.30;99.90;;;;;;10255894;28;20216;-79
2023/09/07 22:53:45;;;;;;;7.13;6.50;;;20.20;99.90;;;;;;10243337;28;20295;-78
2023/09/07 22:58:48;;;;;;;6.10;5.60;;;20.10;99.90;;;;;;10320636;28;20243;-78
2023/09/07 23:03:51;;;;;;;7.80;6.07;;;20.10;99.90;;;;;;10257639;28;20233;-79
2023/09/07 23:08:53;;;;;;;6.60;6.10;;;20.10;99.90;;;;;;10294306;28;20201;-79
2023/09/07 23:13:56;;;;;;;7.17;6.47;;;20.00;99.90;;;;;;10261681;28;20213;-79
2023/09/07 23:18:59;;;;;;;6.90;6.23;;;20.00;99.90;;;;;;10285251;28;20564;-78
2023/09/07 23:24:01;;;;;;;7.47;6.77;;;19.90;99.90;;;;;;10254992;28;20702;-79
2023/09/07 23:29:06;;;;;;;7.10;6.50;;;19.90;99.90;;;;;;10253948;29;20205;-77
2023/09/07 23:34:08;;;;;;;6.60;6.10;;;19.90;99.90;;;;;;10254703;28;20221;-79
2023/09/07 23:39:11;;;;;;;7.30;6.53;;;19.80;99.90;;;;;;10254068;28;20222;-79
2023/09/07 23:44:14;;;;;;;6.23;5.67;;;19.80;99.90;;;;;;10319960;28;20243;-78
2023/09/07 23:49:16;;;;;;;6.00;5.50;;;19.80;99.90;;;;;;10254379;28;20300;-78
2023/09/07 23:54:18;;;;;;;6.20;5.77;;;19.70;99.90;;;;;;10254193;28;20232;-79
2023/09/07 23:59:22;;;;;;;6.17;5.77;;;19.70;99.90;;;;;;10254409;28;20308;-78
